STORD / SOERSTOKKEN current weather conditions

sailwx.info

Wind from 130 at 17 knots

Air temperature 2.0° C
Visibility: greater than 5.4 NM
Dewpoint -3.0° C

Last reported at 2015-Jan-30 22:20 UTC.
Time now 2015-Jan-31 08:41 UTC

Location: N 59°48' E 005°21'.
View on Google Maps.

See reports from other nearby stations

  
Tides and Currents Weather Stations Pressure Air Temp Water Temp Dewpoint Dewpoint Depression Visibility Wind Speed Wind Dir Waves Ship Positions
date/time (UTC)wind fromknots sea level pressurealtimeterstation pressurevisibilityair tempwater tempwave heightnotes
2015-Jan-30 22:20 130 17 5.4 2.0
2015-Jan-30 21:50 130 18 5.4 2.0
2015-Jan-30 21:20 120 17 5.4 1.0
2015-Jan-30 20:50 120 15 5.4 1.0
2015-Jan-30 20:20 120 16 5.4 1.0 Light snow.
2015-Jan-30 19:50 120 15 3.2 1.0 Light snow.
2015-Jan-30 19:20 120 17 3.2 1.0 Light snow.
2015-Jan-30 18:50 120 17 2.4 1.0 Light snow.
2015-Jan-30 18:20 120 17 2.2 1.0 Light snow.
2015-Jan-30 17:50 120 17 1.0 Light snow.
2015-Jan-30 17:20 120 18 gusting 27 2.2 1.0 Light snow.
2015-Jan-30 16:50 120 15 1.3 1.0 Light snow showers.
2015-Jan-30 16:20 130 15 1.3 1.0 Light snow showers.
2015-Jan-30 15:50 120 16 1.6 1.0 Light snow showers.
2015-Jan-30 15:20 130 17 2.2 1.0 Light rain showers.
2015-Jan-30 14:20 130 20 3.2 1.0 Light rain showers.
2015-Jan-30 13:50 140 20 gusting 31 3.2 1.0 Light rain showers.
2015-Jan-30 12:50 150 18 gusting 29 3.2 1.0 Light rain showers.
2015-Jan-30 12:20 140 20 gusting 31 2.7 2.0 Snow showers.
2015-Jan-30 11:50 150 20 gusting 32 3.2 2.0 Snow showers.
2015-Jan-30 11:20 140 23 gusting 31 3.2 2.0 Snow showers.
2015-Jan-30 10:50 150 20 gusting 30 2.7 2.0 Snow showers.
2015-Jan-30 10:20 140 22 gusting 31 2.7 2.0 Snow showers.
2015-Jan-30 09:50 150 18 gusting 29 2.7 2.0 Snow showers.
2015-Jan-30 09:20 150 20 gusting 30 2.2 2.0 Snow showers.
2015-Jan-30 08:50 150 18 gusting 27 2.2 1.0 Snow showers.
2015-Jan-30 07:50 160 16 gusting 26 1.6 1.0 Snow showers.
2015-Jan-30 07:20 140 16 2.7 1.0 Snow showers.
2015-Jan-29 18:50 210 11 5.4 3.0
2015-Jan-29 18:20 210 13 gusting 24 5.4 3.0
2015-Jan-29 17:50 210 10 5.4 3.0 Light rain showers.
2015-Jan-29 17:20 210 8 5.4 3.0
2015-Jan-29 16:50 210 10 gusting 20 5.4 2.0
2015-Jan-29 16:20 170 7 5.4 2.0 Light snow showers.
2015-Jan-29 15:50 210 11 3.8 1.0 Light snow grains showers.
2015-Jan-29 15:20 220 10 gusting 22 1.6 1.0 Light snow grains showers.
2015-Jan-29 14:50 230 7 1.9 1.0 Light snow showers.
2015-Jan-29 14:20 220 5 0.8 1.0 Light hail showers.
2015-Jan-29 13:50 230 9 4.3 1.0 Light small hail/snow pellets showers.
2015-Jan-29 13:20 260 14 gusting 27 4.3 2.0 Showers in the vicinity.
2015-Jan-29 12:50 260 11 5.4 1.0 Showers in the vicinity.
2015-Jan-29 12:20 240 13 5.4 3.0 Showers in the vicinity.
2015-Jan-29 11:50 180 8 5.4 2.0 Showers in the vicinity.
2015-Jan-29 11:20 260 13 gusting 26 2.7 2.0 Rain showers.
2015-Jan-29 10:50 250 20 gusting 33 1.0 Light rain showers.
2015-Jan-29 10:20 270 11 3.8 2.0 Light rain showers.
2015-Jan-29 09:50 270 11 5.4 2.0 Light rain showers.
2015-Jan-29 09:20 260 9 5.4 2.0 Light rain showers.
2015-Jan-29 08:50 240 9 5.4 2.0 Light rain drizzle.
2015-Jan-29 08:20 260 14 gusting 24 5.4 2.0 Light rain drizzle.